Time;durP1;ratioP1;P1;durP2;ratioP2;P2;SDS_P1;SDS_P2;PMS_P1;PMS_P2;Temp;Humidity;BMP_temperature;BMP_pressure;BME280_temperature;BME280_humidity;BME280_pressure;Samples;Min_cycle;Max_cycle;Signal;HPM_P1;HPM_P2
2022/03/25 00:00:48;;;;;;;22.95;5.25;;;;;;;6.02;100.00;101359.56;7396780;19;20070;-58
2022/03/25 00:03:15;;;;;;;11.65;3.95;;;;;;;5.95;100.00;101358.84;7393072;19;20010;-58
2022/03/25 00:05:41;;;;;;;33.70;5.30;;;;;;;5.88;100.00;101365.22;7396085;19;20010;-58
2022/03/25 00:08:08;;;;;;;8.80;3.60;;;;;;;5.83;100.00;101365.59;7395018;19;20015;-58
2022/03/25 00:10:34;;;;;;;14.45;5.25;;;;;;;5.76;100.00;101362.88;7396508;19;20014;-58
2022/03/25 00:13:00;;;;;;;10.02;4.95;;;;;;;5.70;100.00;101361.75;7395158;19;20018;-58
2022/03/25 00:15:27;;;;;;;16.50;5.72;;;;;;;5.66;100.00;101362.97;7393548;19;20028;-58
2022/03/25 00:17:53;;;;;;;12.52;4.65;;;;;;;5.61;100.00;101358.66;7393408;19;20030;-58
2022/03/25 00:20:19;;;;;;;7.93;4.22;;;;;;;5.54;100.00;101361.47;7393675;19;20070;-58
2022/03/25 00:22:45;;;;;;;24.77;4.45;;;;;;;5.53;100.00;101364.63;7393610;19;20359;-58
2022/03/25 00:25:12;;;;;;;5.30;3.22;;;;;;;5.44;100.00;101361.53;7394382;19;20014;-58
2022/03/25 00:27:38;;;;;;;17.02;4.43;;;;;;;5.44;100.00;101356.78;7395282;19;20010;-58
2022/03/25 00:30:05;;;;;;;14.02;4.00;;;;;;;5.42;100.00;101364.69;7394823;19;20127;-58
2022/03/25 00:32:31;;;;;;;17.02;4.63;;;;;;;5.34;100.00;101357.66;7398199;19;20010;-58
2022/03/25 00:34:58;;;;;;;19.80;5.07;;;;;;;5.34;100.00;101363.16;7395951;19;20018;-57
2022/03/25 00:37:26;;;;;;;18.55;5.75;;;;;;;5.29;100.00;101363.59;7394773;19;20034;-58
2022/03/25 00:39:52;;;;;;;2.80;2.22;;;;;;;5.29;100.00;101363.59;7391922;19;20019;-58
2022/03/25 00:42:19;;;;;;;8.02;3.33;;;;;;;5.28;100.00;101364.78;7398428;19;20080;-58
2022/03/25 00:44:45;;;;;;;5.53;4.35;;;;;;;5.21;100.00;101364.81;7394888;19;20474;-58
2022/03/25 00:47:12;;;;;;;17.13;4.13;;;;;;;5.19;100.00;101367.19;7394451;19;20339;-58
2022/03/25 00:49:39;;;;;;;11.15;3.55;;;;;;;5.18;100.00;101360.09;7393045;19;20017;-58
2022/03/25 00:52:05;;;;;;;14.43;4.47;;;;;;;5.16;100.00;101368.78;7396496;19;20010;-58
2022/03/25 00:54:32;;;;;;;13.23;4.55;;;;;;;5.16;100.00;101366.03;7393212;19;20024;-58
2022/03/25 00:56:58;;;;;;;17.27;5.82;;;;;;;5.18;100.00;101365.63;7392540;19;20404;-58
2022/03/25 00:59:24;;;;;;;9.63;4.05;;;;;;;5.16;100.00;101365.22;7393729;19;20014;-58
2022/03/25 01:01:50;;;;;;;5.80;3.58;;;;;;;5.10;100.00;101364.09;7397523;19;20038;-58
2022/03/25 01:04:16;;;;;;;15.98;4.10;;;;;;;5.07;100.00;101365.66;7392187;19;20021;-58
2022/03/25 01:06:43;;;;;;;2.78;2.35;;;;;;;5.03;100.00;101369.63;7395871;19;20021;-58
2022/03/25 01:09:09;;;;;;;5.47;3.85;;;;;;;5.00;100.00;101371.22;7393267;19;20347;-58
2022/03/25 01:11:36;;;;;;;9.32;3.33;;;;;;;4.98;100.00;101370.06;7396816;19;20014;-58
2022/03/25 01:14:03;;;;;;;11.25;2.47;;;;;;;4.95;100.00;101373.59;7393369;19;20017;-58
2022/03/25 01:16:29;;;;;;;16.98;4.10;;;;;;;4.88;100.00;101374.41;7392441;19;20010;-58
2022/03/25 01:18:56;;;;;;;15.63;3.30;;;;;;;4.86;100.00;101370.47;7393390;19;20479;-58
2022/03/25 01:21:22;;;;;;;21.63;4.72;;;;;;;4.84;100.00;101368.13;7393790;19;20014;-58
2022/03/25 01:23:48;;;;;;;8.05;4.70;;;;;;;4.84;100.00;101372.84;7393607;19;20011;-58
2022/03/25 01:26:15;;;;;;;13.50;4.63;;;;;;;4.78;100.00;101368.94;7390437;19;20082;-59
2022/03/25 01:28:41;;;;;;;22.17;4.22;;;;;;;4.74;100.00;101359.88;7391912;19;20037;-58
2022/03/25 01:31:09;;;;;;;3.72;3.08;;;;;;;4.73;100.00;101366.59;7393331;19;20023;-58
2022/03/25 01:33:39;;;;;;;8.57;3.35;;;;;;;4.73;100.00;101361.06;7390252;19;20021;-58
2022/03/25 01:36:06;;;;;;;3.70;3.42;;;;;;;4.72;100.00;101362.25;7391417;19;20011;-57
2022/03/25 01:38:35;;;;;;;9.63;5.43;;;;;;;4.71;100.00;101355.94;7391753;19;20011;-57
2022/03/25 01:41:03;;;;;;;15.13;4.18;;;;;;;4.74;100.00;101357.94;7395474;19;20471;-58
2022/03/25 01:43:29;;;;;;;7.22;4.22;;;;;;;4.77;100.00;101356.31;7394238;19;20095;-58
2022/03/25 01:45:55;;;;;;;12.50;3.42;;;;;;;4.75;100.00;101356.72;7399447;19;20106;-58
2022/03/25 01:48:22;;;;;;;12.65;3.72;;;;;;;4.72;100.00;101356.75;7400933;19;20014;-58
2022/03/25 01:50:49;;;;;;;8.82;2.53;;;;;;;4.61;100.00;101357.53;7400416;19;20028;-58
2022/03/25 01:53:18;;;;;;;4.50;2.67;;;;;;;4.60;100.00;101369.78;7399891;19;20018;-58
2022/03/25 01:56:03;;;;;;;24.80;5.35;;;;;;;4.62;100.00;101355.59;7399074;19;20015;-58
2022/03/25 01:58:31;;;;;;;9.13;3.53;;;;;;;4.60;100.00;101353.22;7398048;19;20011;-58
2022/03/25 02:00:59;;;;;;;5.22;2.97;;;;;;;4.63;100.00;101359.13;7399211;19;20095;-59
2022/03/25 02:03:26;;;;;;;9.30;2.80;;;;;;;4.57;100.00;101356.78;7397637;19;20036;-58
2022/03/25 02:05:52;;;;;;;8.82;4.32;;;;;;;4.53;100.00;101357.97;7395382;19;20522;-58
2022/03/25 02:08:20;;;;;;;12.52;3.92;;;;;;;4.47;100.00;101349.31;7397991;19;20013;-58
2022/03/25 02:10:47;;;;;;;15.65;5.43;;;;;;;4.38;100.00;101354.47;7400214;19;20047;-58
2022/03/25 02:13:14;;;;;;;15.30;5.65;;;;;;;4.37;100.00;101349.34;7398315;19;20014;-58
2022/03/25 02:15:47;;;;;;;23.35;4.32;;;;;;;4.33;100.00;101349.34;7398034;19;20014;-58
2022/03/25 02:18:15;;;;;;;20.17;4.80;;;;;;;4.34;100.00;101337.13;7397258;19;20014;-57
2022/03/25 02:20:42;;;;;;;14.90;4.40;;;;;;;4.31;100.00;101339.91;7399051;19;20019;-58
2022/03/25 02:23:12;;;;;;;10.73;4.43;;;;;;;4.25;100.00;101347.78;7397249;19;20031;-57
2022/03/25 02:25:40;;;;;;;6.75;4.10;;;;;;;4.21;100.00;101344.25;7396373;19;20048;-58
2022/03/25 02:28:08;;;;;;;10.05;3.53;;;;;;;4.16;100.00;101343.88;7398246;19;20486;-57
2022/03/25 02:30:36;;;;;;;6.15;2.28;;;;;;;4.09;100.00;101349.38;7397806;19;20347;-58
2022/03/25 02:33:04;;;;;;;4.35;3.17;;;;;;;4.06;100.00;101344.66;7398744;19;20011;-58
2022/03/25 02:35:37;;;;;;;7.28;4.30;;;;;;;4.02;100.00;101343.88;7397960;19;20006;-59
2022/03/25 02:38:05;;;;;;;8.55;4.43;;;;;;;4.03;100.00;101335.19;7396364;19;20018;-58
2022/03/25 02:40:32;;;;;;;10.80;3.83;;;;;;;4.01;100.00;101336.75;7395732;19;20038;-58
2022/03/25 02:42:59;;;;;;;8.85;2.50;;;;;;;4.02;100.00;101338.34;7398819;19;20014;-58
2022/03/25 02:45:26;;;;;;;10.00;3.85;;;;;;;3.99;100.00;101344.66;7396213;19;20011;-58
2022/03/25 02:47:52;;;;;;;18.83;4.40;;;;;;;3.96;100.00;101349.00;7396993;19;20031;-58
2022/03/25 02:50:18;;;;;;;7.88;3.65;;;;;;;3.96;100.00;101342.69;7398037;19;20031;-58
2022/03/25 02:52:44;;;;;;;6.10;3.08;;;;;;;3.90;100.00;101347.78;7397581;19;20018;-58
2022/03/25 02:55:12;;;;;;;4.85;3.38;;;;;;;3.87;100.00;101348.59;7396456;19;20463;-58
2022/03/25 02:57:38;;;;;;;4.18;3.17;;;;;;;3.88;100.00;101347.41;7396954;19;20066;-58
2022/03/25 03:00:08;;;;;;;14.50;2.53;;;;;;;3.87;100.00;101345.84;7397993;19;20019;-58
2022/03/25 03:02:35;;;;;;;12.50;5.30;;;;;;;3.81;100.00;101344.66;7398259;19;20019;-58
2022/03/25 03:05:03;;;;;;;3.22;2.92;;;;;;;3.79;100.00;101347.78;7397491;19;20408;-58
2022/03/25 03:07:29;;;;;;;4.70;3.08;;;;;;;3.80;100.00;101348.59;7398145;19;20021;-58
2022/03/25 03:09:55;;;;;;;4.25;2.45;;;;;;;3.77;100.00;101350.16;7397578;19;20506;-58
2022/03/25 03:12:22;;;;;;;9.60;2.60;;;;;;;3.80;100.00;101349.38;7401339;19;20014;-57
2022/03/25 03:14:48;;;;;;;12.48;5.28;;;;;;;3.75;100.00;101346.22;7397997;19;20011;-58
2022/03/25 03:17:15;;;;;;;2.95;2.75;;;;;;;3.73;100.00;101354.88;7395956;19;20015;-58
2022/03/25 03:19:41;;;;;;;8.38;3.00;;;;;;;3.70;100.00;101352.13;7397163;19;20031;-58
2022/03/25 03:22:07;;;;;;;5.75;4.22;;;;;;;3.69;100.00;101350.56;7400332;19;20344;-58
2022/03/25 03:24:33;;;;;;;7.45;4.55;;;;;;;3.68;100.00;101352.50;7395247;19;20025;-58
2022/03/25 03:26:59;;;;;;;11.65;4.60;;;;;;;3.68;100.00;101352.50;7394963;19;20025;-58
2022/03/25 03:29:26;;;;;;;8.88;5.00;;;;;;;3.65;100.00;101341.50;7397659;19;20015;-58
2022/03/25 03:31:52;;;;;;;9.00;3.97;;;;;;;3.62;100.00;101359.59;7396216;19;20010;-58
2022/03/25 03:34:18;;;;;;;20.58;4.57;;;;;;;3.59;100.00;101356.84;7393899;19;20471;-58
2022/03/25 03:36:44;;;;;;;12.13;4.30;;;;;;;3.55;100.00;101359.56;7396129;19;20014;-57
2022/03/25 03:39:11;;;;;;;7.47;4.53;;;;;;;3.51;100.00;101358.78;7396966;19;20034;-59
2022/03/25 03:41:38;;;;;;;12.35;6.55;;;;;;;3.44;100.00;101358.00;7399100;19;20325;-58
2022/03/25 03:44:05;;;;;;;10.95;3.10;;;;;;;3.41;100.00;101364.28;7395613;19;20015;-58
2022/03/25 03:46:33;;;;;;;29.73;4.57;;;;;;;3.37;100.00;101364.28;7393520;19;20010;-58
2022/03/25 03:49:02;;;;;;;9.35;3.33;;;;;;;3.33;100.00;101360.72;7395357;19;20011;-58
2022/03/25 03:51:29;;;;;;;12.63;3.45;;;;;;;3.27;100.00;101359.50;7397918;19;20015;-57
2022/03/25 03:53:55;;;;;;;12.93;4.63;;;;;;;3.30;100.00;101366.22;7395849;19;20021;-58
2022/03/25 03:56:22;;;;;;;10.02;3.55;;;;;;;3.29;100.00;101368.16;7396817;19;20018;-57
2022/03/25 03:58:48;;;;;;;21.70;4.30;;;;;;;3.28;100.00;101365.81;7396243;19;20014;-57
2022/03/25 04:01:14;;;;;;;14.27;3.15;;;;;;;3.29;100.00;101364.66;7397983;19;20463;-58
2022/03/25 04:03:41;;;;;;;9.20;3.60;;;;;;;3.28;100.00;101365.81;7396383;19;20018;-58
2022/03/25 04:06:07;;;;;;;13.43;4.78;;;;;;;3.30;100.00;101372.50;7391712;19;20010;-58
2022/03/25 04:08:35;;;;;;;7.63;3.40;;;;;;;3.31;100.00;101374.09;7395067;19;20010;-57
2022/03/25 04:11:02;;;;;;;4.05;3.50;;;;;;;3.32;100.00;101372.91;7397724;19;20034;-58
2022/03/25 04:13:29;;;;;;;5.03;3.53;;;;;;;3.29;100.00;101378.41;7395931;19;20010;-58
2022/03/25 04:15:55;;;;;;;11.13;2.85;;;;;;;3.27;100.00;101378.03;7396091;19;20017;-57
2022/03/25 04:18:22;;;;;;;10.35;4.38;;;;;;;3.21;100.00;101382.31;7395317;19;20040;-57
2022/03/25 04:20:50;;;;;;;7.68;3.55;;;;;;;3.11;100.00;101380.31;7395628;19;20015;-57
2022/03/25 04:23:17;;;;;;;4.07;3.03;;;;;;;3.10;100.00;101376.00;7394464;19;20014;-57
2022/03/25 04:25:43;;;;;;;27.45;5.05;;;;;;;3.10;100.00;101381.50;7394464;19;20088;-57
2022/03/25 04:28:09;;;;;;;5.63;2.97;;;;;;;3.06;100.00;101376.75;7395260;19;20014;-58
2022/03/25 04:30:37;;;;;;;8.90;4.50;;;;;;;3.03;100.00;101374.78;7395610;19;20011;-57
2022/03/25 04:33:04;;;;;;;7.32;3.22;;;;;;;3.01;100.00;101379.13;7394188;19;20010;-57
2022/03/25 04:35:32;;;;;;;9.43;3.40;;;;;;;2.99;100.00;101382.22;7394307;19;20013;-57
2022/03/25 04:37:59;;;;;;;2.67;2.10;;;;;;;2.94;100.00;101379.88;7394001;19;20010;-57
2022/03/25 04:40:27;;;;;;;3.95;3.25;;;;;;;2.95;100.00;101386.94;7392502;19;20328;-58
2022/03/25 04:42:55;;;;;;;6.00;3.60;;;;;;;2.96;100.00;101388.53;7394038;19;20038;-58
2022/03/25 04:45:24;;;;;;;5.05;3.83;;;;;;;2.94;100.00;101387.31;7392909;19;20015;-57
2022/03/25 04:47:51;;;;;;;8.50;3.60;;;;;;;2.91;100.00;101391.63;7393111;19;20497;-58
2022/03/25 04:50:18;;;;;;;4.22;2.88;;;;;;;2.88;100.00;101386.91;7392357;19;20347;-58
2022/03/25 04:52:45;;;;;;;4.32;3.63;;;;;;;2.83;100.00;101395.53;7396114;19;20014;-57
2022/03/25 04:55:12;;;;;;;6.05;3.63;;;;;;;2.82;100.00;101393.16;7393787;19;20015;-57
2022/03/25 04:57:39;;;;;;;5.72;3.13;;;;;;;2.80;100.00;101390.78;7392754;19;20022;-58
2022/03/25 05:00:07;;;;;;;11.68;4.03;;;;;;;2.80;100.00;101401.78;7393316;19;20018;-57
2022/03/25 05:02:34;;;;;;;10.95;3.45;;;;;;;2.76;100.00;101400.19;7398399;19;20019;-57
2022/03/25 05:05:00;;;;;;;16.05;3.33;;;;;;;2.72;100.00;101394.69;7392823;19;20098;-57
2022/03/25 05:07:26;;;;;;;7.35;4.75;;;;;;;2.71;100.00;101401.34;7393600;19;20018;-57
2022/03/25 05:09:53;;;;;;;2.78;2.67;;;;;;;2.69;100.00;101395.44;7391774;19;20007;-57
2022/03/25 05:12:19;;;;;;;5.03;4.55;;;;;;;2.70;100.00;101393.50;7397541;19;20030;-57
2022/03/25 05:14:45;;;;;;;1.88;1.77;;;;;;;2.63;100.00;101394.22;7391913;19;20463;-58
2022/03/25 05:17:11;;;;;;;8.07;2.92;;;;;;;2.55;100.00;101395.38;7393622;19;20022;-57
2022/03/25 05:19:37;;;;;;;4.05;3.15;;;;;;;2.61;100.00;101393.84;7399927;19;20014;-57
2022/03/25 05:22:03;;;;;;;9.35;4.43;;;;;;;2.66;100.00;101400.94;7404481;19;20034;-57
2022/03/25 05:24:30;;;;;;;7.68;2.58;;;;;;;2.65;100.00;101400.13;7401524;19;20006;-57
2022/03/25 05:26:59;;;;;;;8.25;3.53;;;;;;;2.62;100.00;101394.63;7398174;19;20025;-57
2022/03/25 05:29:26;;;;;;;5.03;2.80;;;;;;;2.59;100.00;101390.69;7400901;19;20510;-57
2022/03/25 05:31:52;;;;;;;6.32;3.45;;;;;;;2.51;100.00;101394.56;7403242;19;20027;-57
2022/03/25 05:34:18;;;;;;;9.82;3.53;;;;;;;2.56;100.00;101405.19;7399534;19;20478;-57
2022/03/25 05:36:44;;;;;;;33.15;5.78;;;;;;;2.53;100.00;101405.97;7400896;19;20010;-57
2022/03/25 05:39:11;;;;;;;2.22;2.13;;;;;;;2.51;100.00;101411.06;7400811;19;20076;-57
2022/03/25 05:41:38;;;;;;;9.90;4.13;;;;;;;2.47;100.00;101410.22;7402894;19;20077;-57
2022/03/25 05:44:04;;;;;;;5.50;4.78;;;;;;;2.42;100.00;101407.84;7400558;19;20355;-57
2022/03/25 05:46:31;;;;;;;9.82;4.65;;;;;;;2.40;100.00;101409.41;7396889;19;20015;-57
2022/03/25 05:48:57;;;;;;;5.40;4.20;;;;;;;2.37;100.00;101410.94;7399584;19;20086;-57
2022/03/25 05:51:23;;;;;;;15.70;3.28;;;;;;;2.39;100.00;101411.34;7399784;19;20007;-57
2022/03/25 05:53:49;;;;;;;10.90;5.75;;;;;;;2.40;100.00;101412.16;7399350;19;20033;-59
2022/03/25 05:56:15;;;;;;;8.10;3.65;;;;;;;2.43;100.00;101411.38;7399773;19;20015;-57
2022/03/25 05:58:41;;;;;;;10.68;3.95;;;;;;;2.44;100.00;101404.72;7400038;19;20490;-57
2022/03/25 06:01:08;;;;;;;8.18;3.90;;;;;;;2.44;100.00;101405.50;7401218;19;20030;-57
2022/03/25 06:03:34;;;;;;;17.95;3.67;;;;;;;2.47;100.00;101412.22;7398844;19;20007;-57
2022/03/25 06:06:03;;;;;;;9.23;4.38;;;;;;;2.50;100.00;101409.47;7397470;19;20034;-57
2022/03/25 06:08:30;;;;;;;4.88;3.40;;;;;;;2.51;100.00;101411.06;7398703;19;20466;-57
2022/03/25 06:10:57;;;;;;;20.65;5.18;;;;;;;2.52;100.00;101418.13;7399184;19;20021;-57
2022/03/25 06:13:23;;;;;;;9.43;4.07;;;;;;;2.54;100.00;101415.78;7397880;19;20010;-57
2022/03/25 06:15:50;;;;;;;9.77;4.22;;;;;;;2.53;100.00;101419.72;7398086;19;20010;-58
2022/03/25 06:18:16;;;;;;;12.77;4.38;;;;;;;2.54;100.00;101410.28;7400225;19;20010;-57
2022/03/25 06:20:42;;;;;;;12.82;4.30;;;;;;;2.55;100.00;101417.38;7399263;19;20087;-57
2022/03/25 06:23:08;;;;;;;12.93;4.00;;;;;;;2.60;100.00;101417.00;7401682;19;20025;-57
2022/03/25 06:25:35;;;;;;;7.97;4.28;;;;;;;2.59;100.00;101420.13;7399479;19;20021;-57
2022/03/25 06:28:04;;;;;;;20.70;4.53;;;;;;;2.59;100.00;101426.44;7401269;19;20459;-57
2022/03/25 06:30:35;;;;;;;4.32;1.90;;;;;;;2.59;100.00;101429.19;7398878;19;20477;-57
2022/03/25 06:33:06;;;;;;;10.53;4.13;;;;;;;2.60;100.00;101429.97;7400845;19;20007;-57
2022/03/25 06:35:33;;;;;;;4.60;3.13;;;;;;;2.62;100.00;101427.63;7401894;19;20010;-57
2022/03/25 06:37:59;;;;;;;2.83;2.63;;;;;;;2.64;100.00;101431.53;7401676;19;20019;-57
2022/03/25 06:40:25;;;;;;;7.25;3.67;;;;;;;2.67;100.00;101436.28;7401023;19;20018;-57
2022/03/25 06:42:57;;;;;;;10.48;3.72;;;;;;;2.66;100.00;101442.19;7400155;19;20033;-57
2022/03/25 06:45:26;;;;;;;8.32;3.45;;;;;;;2.66;100.00;101445.72;7399793;19;20070;-57
2022/03/25 06:47:52;;;;;;;6.43;4.35;;;;;;;2.72;100.00;101438.69;7400333;19;20459;-58
2022/03/25 06:50:20;;;;;;;8.90;4.68;;;;;;;2.71;100.00;101437.09;7399958;19;20010;-57
2022/03/25 06:52:49;;;;;;;8.23;3.58;;;;;;;2.76;100.00;101434.00;7399398;19;20011;-57
2022/03/25 06:55:17;;;;;;;8.15;4.55;;;;;;;2.77;100.00;101435.56;7397153;19;20015;-57
2022/03/25 06:57:43;;;;;;;6.22;3.60;;;;;;;2.80;100.00;101440.31;7397633;19;20011;-58
2022/03/25 07:00:12;;;;;;;13.13;4.05;;;;;;;2.85;100.00;101442.69;7397568;19;20007;-57
2022/03/25 07:02:43;;;;;;;3.92;3.20;;;;;;;2.91;100.00;101435.66;7397548;19;20010;-57
2022/03/25 07:05:10;;;;;;;10.43;4.30;;;;;;;2.97;100.00;101439.63;7397203;19;20007;-57
2022/03/25 07:07:38;;;;;;;16.38;5.40;;;;;;;3.04;100.00;101441.63;7397982;19;20043;-58
2022/03/25 07:10:06;;;;;;;7.38;4.97;;;;;;;3.07;100.00;101444.38;7395980;19;20019;-57
2022/03/25 07:12:32;;;;;;;6.65;3.67;;;;;;;3.14;100.00;101437.34;7400510;19;20021;-57
2022/03/25 07:14:58;;;;;;;8.77;3.10;;;;;;;3.24;100.00;101436.59;7397066;19;20018;-57
2022/03/25 07:17:24;;;;;;;5.60;4.55;;;;;;;3.28;100.00;101440.16;7397211;19;20070;-57
2022/03/25 07:19:50;;;;;;;12.23;4.55;;;;;;;3.33;100.00;101446.09;7395972;19;20023;-57
2022/03/25 07:22:17;;;;;;;4.03;3.08;;;;;;;3.36;100.00;101439.78;7399773;19;20017;-57
2022/03/25 07:24:43;;;;;;;5.20;3.67;;;;;;;3.48;100.00;101441.41;7396574;19;20010;-57
2022/03/25 07:27:09;;;;;;;12.25;4.30;;;;;;;3.58;100.00;101448.91;7394329;19;20011;-57
2022/03/25 07:29:36;;;;;;;6.00;3.97;;;;;;;3.66;100.00;101448.53;7394572;19;20003;-57
2022/03/25 07:32:04;;;;;;;9.27;4.25;;;;;;;3.73;100.00;101448.56;7399709;19;20018;-57
2022/03/25 07:34:31;;;;;;;10.23;5.15;;;;;;;3.83;100.00;101447.00;7395486;19;20118;-57
2022/03/25 07:36:58;;;;;;;7.75;4.20;;;;;;;3.87;100.00;101447.81;7395365;19;20007;-57
2022/03/25 07:39:24;;;;;;;15.70;5.57;;;;;;;3.89;100.00;101450.97;7396060;19;20343;-57
2022/03/25 07:41:50;;;;;;;8.77;5.13;;;;;;;3.95;100.00;101449.38;7399491;19;20018;-57
2022/03/25 07:44:16;;;;;;;8.60;5.93;;;;;;;4.01;100.00;101453.31;7395875;19;20022;-57
2022/03/25 07:46:42;;;;;;;7.82;3.50;;;;;;;4.08;100.00;101456.09;7393111;19;20073;-57
2022/03/25 07:49:09;;;;;;;6.60;3.70;;;;;;;4.22;100.00;101458.84;7395090;19;20340;-57
2022/03/25 07:51:35;;;;;;;6.90;4.75;;;;;;;4.39;100.00;101458.09;7397754;19;20495;-57
2022/03/25 07:54:01;;;;;;;9.00;5.30;;;;;;;4.52;100.00;101451.00;7395130;19;20459;-57
2022/03/25 07:56:28;;;;;;;22.85;4.63;;;;;;;4.73;100.00;101455.69;7395954;19;20018;-57
2022/03/25 07:58:54;;;;;;;15.88;4.15;;;;;;;4.88;100.00;101450.91;7395213;19;20015;-57
2022/03/25 08:01:21;;;;;;;15.13;3.05;;;;;;;5.06;100.00;101451.66;7397553;19;20006;-57
2022/03/25 08:03:47;;;;;;;6.97;5.15;;;;;;;5.21;100.00;101458.72;7393172;19;20022;-58
2022/03/25 08:06:14;;;;;;;11.93;4.18;;;;;;;5.39;100.00;101462.22;7393595;19;20007;-57
2022/03/25 08:08:40;;;;;;;25.90;6.35;;;;;;;5.48;100.00;101462.53;7394806;19;20015;-58
2022/03/25 08:11:08;;;;;;;13.90;5.85;;;;;;;5.58;100.00;101460.94;7396862;19;20022;-57
2022/03/25 08:13:34;;;;;;;15.63;6.68;;;;;;;5.72;100.00;101461.63;7394221;19;20021;-57
2022/03/25 08:16:00;;;;;;;16.05;6.35;;;;;;;5.86;100.00;101463.56;7394646;19;20021;-57
2022/03/25 08:18:27;;;;;;;21.00;7.03;;;;;;;5.99;100.00;101464.66;7394611;19;20011;-57
2022/03/25 08:20:53;;;;;;;10.70;4.80;;;;;;;6.11;100.00;101478.81;7394881;19;20016;-57
2022/03/25 08:28:55;;;;;;;7.38;3.45;;;;;;;6.51;100.00;101476.53;7394967;19;20006;-57
2022/03/25 08:31:22;;;;;;;4.47;3.40;;;;;;;6.68;100.00;101473.59;7397212;19;20010;-57
2022/03/25 08:33:48;;;;;;;9.48;4.90;;;;;;;6.85;100.00;101477.38;7395215;19;20021;-57
2022/03/25 08:36:16;;;;;;;26.90;5.72;;;;;;;7.05;100.00;101483.91;7393814;19;20455;-57
2022/03/25 08:38:43;;;;;;;10.80;5.43;;;;;;;7.24;100.00;101488.06;7392411;19;20051;-58
2022/03/25 08:41:09;;;;;;;16.52;5.57;;;;;;;7.40;100.00;101491.84;7395072;19;20015;-57
2022/03/25 08:43:36;;;;;;;12.25;5.30;;;;;;;7.58;100.00;101486.84;7393701;19;20345;-57
2022/03/25 08:46:03;;;;;;;11.23;4.00;;;;;;;7.74;100.00;101488.22;7393338;19;20135;-58
2022/03/25 08:48:29;;;;;;;14.63;4.88;;;;;;;7.89;100.00;101497.94;7393760;19;20463;-57
2022/03/25 08:50:56;;;;;;;12.50;5.30;;;;;;;8.07;100.00;101495.69;7394421;19;20018;-57
2022/03/25 08:53:22;;;;;;;10.40;6.13;;;;;;;8.23;100.00;101493.06;7392551;19;20007;-57
2022/03/25 08:55:48;;;;;;;16.88;5.97;;;;;;;8.37;100.00;101499.25;7390850;19;20010;-58
2022/03/25 08:58:15;;;;;;;16.38;5.78;;;;;;;8.56;100.00;101506.06;7391779;19;20014;-57
2022/03/25 09:00:41;;;;;;;21.50;5.63;;;;;;;8.76;100.00;101504.16;7393993;19;20030;-58
2022/03/25 09:03:07;;;;;;;20.88;5.60;;;;;;;9.01;100.00;101500.91;7393374;19;20015;-57
2022/03/25 09:05:33;;;;;;;10.55;5.50;;;;;;;9.26;100.00;101511.56;7392270;19;20075;-58
2022/03/25 09:07:59;;;;;;;10.43;4.47;;;;;;;9.44;100.00;101504.44;7393532;19;20027;-57
2022/03/25 09:10:26;;;;;;;9.95;4.55;;;;;;;9.66;100.00;101510.34;7393677;19;20014;-57
2022/03/25 09:12:52;;;;;;;16.27;6.03;;;;;;;9.90;100.00;101500.69;7392072;19;20010;-58
2022/03/25 09:15:18;;;;;;;33.38;4.53;;;;;;;10.11;100.00;101519.78;7391857;19;20482;-57
2022/03/25 09:17:45;;;;;;;14.73;4.82;;;;;;;10.23;100.00;101510.72;7392115;19;20539;-57
2022/03/25 09:20:13;;;;;;;11.98;5.68;;;;;;;10.48;100.00;101512.94;7392725;19;20034;-57
2022/03/25 09:22:40;;;;;;;14.45;4.03;;;;;;;10.66;100.00;101500.13;7392222;19;20724;-57
2022/03/25 09:25:07;;;;;;;10.85;4.45;;;;;;;10.82;100.00;101506.91;7391714;19;20086;-58
2022/03/25 09:27:35;;;;;;;22.42;6.32;;;;;;;11.08;100.00;101503.81;7392999;19;20014;-58
2022/03/25 09:30:03;;;;;;;15.75;4.70;;;;;;;11.41;100.00;101505.28;7392161;19;20015;-58
2022/03/25 09:32:29;;;;;;;16.92;6.22;;;;;;;11.82;100.00;101515.72;7396065;19;20019;-58
2022/03/25 09:35:13;;;;;;;12.80;5.97;;;;;;;12.08;100.00;101514.50;7392539;19;20052;-58
2022/03/25 09:37:46;;;;;;;16.45;5.95;;;;;;;12.38;100.00;101509.59;7392644;19;20002;-58
2022/03/25 09:40:16;;;;;;;22.42;5.30;;;;;;;12.68;100.00;101514.59;7392922;19;20019;-58
2022/03/25 09:42:43;;;;;;;15.07;4.87;;;;;;;12.99;100.00;101511.97;7393086;19;20010;-58
2022/03/25 09:45:12;;;;;;;9.77;4.03;;;;;;;13.43;100.00;101511.59;7390848;19;20011;-58
2022/03/25 09:47:38;;;;;;;6.75;5.72;;;;;;;13.78;100.00;101505.91;7392642;19;20383;-57
2022/03/25 09:50:08;;;;;;;13.35;4.03;;;;;;;14.13;100.00;101512.97;7391069;19;20015;-58
2022/03/25 09:52:34;;;;;;;15.82;5.15;;;;;;;14.32;100.00;101509.81;7397509;19;20030;-57
2022/03/25 09:55:02;;;;;;;11.95;4.70;;;;;;;14.67;100.00;101513.19;7391273;19;20034;-57
2022/03/25 09:57:30;;;;;;;8.45;3.78;;;;;;;14.98;100.00;101513.88;7392723;19;20017;-58
2022/03/25 09:59:57;;;;;;;15.93;4.55;;;;;;;15.26;100.00;101513.88;7391910;19;20044;-58
2022/03/25 10:02:26;;;;;;;8.02;3.60;;;;;;;15.64;100.00;101517.00;7394028;19;20365;-58
2022/03/25 10:04:53;;;;;;;9.68;3.28;;;;;;;15.77;100.00;101509.19;7395042;19;20010;-57
2022/03/25 10:07:20;;;;;;;12.82;3.83;;;;;;;16.07;100.00;101510.22;7396487;19;20011;-58
2022/03/25 10:09:49;;;;;;;10.48;4.32;;;;;;;16.33;99.88;101512.13;7398202;19;20352;-58
2022/03/25 10:12:18;;;;;;;5.80;3.28;;;;;;;16.54;96.43;101502.69;7402430;19;20460;-58
2022/03/25 10:14:49;;;;;;;12.10;3.42;;;;;;;16.79;94.55;101509.09;7398744;19;20015;-58
2022/03/25 10:17:15;;;;;;;7.72;2.78;;;;;;;16.97;93.28;101506.97;7397639;19;20324;-58
2022/03/25 10:19:50;;;;;;;5.35;4.03;;;;;;;17.14;89.06;101502.44;7397544;19;20347;-58
2022/03/25 10:22:19;;;;;;;26.10;4.78;;;;;;;17.37;87.81;101506.47;7401609;19;20074;-58
2022/03/25 10:24:52;;;;;;;7.72;3.22;;;;;;;17.51;82.33;101497.31;7396885;19;20038;-57
2022/03/25 10:27:24;;;;;;;12.95;4.32;;;;;;;17.57;79.86;101503.81;7394423;19;20011;-58
2022/03/25 10:29:54;;;;;;;10.73;3.70;;;;;;;17.67;75.18;101508.09;7397781;19;20066;-58
2022/03/25 10:32:26;;;;;;;15.67;4.07;;;;;;;17.71;73.87;101502.28;7400800;19;20011;-57
2022/03/25 10:35:08;;;;;;;3.75;1.67;;;;;;;17.68;73.27;101494.78;7398453;19;20236;-57
2022/03/25 10:37:36;;;;;;;5.50;2.50;;;;;;;17.73;73.25;101502.56;7397817;19;20014;-58
2022/03/25 10:40:06;;;;;;;6.53;2.50;;;;;;;17.77;68.01;101503.94;7396382;19;20025;-58
2022/03/25 10:42:33;;;;;;;8.52;2.80;;;;;;;17.79;68.15;101501.41;7402113;19;20070;-57
2022/03/25 10:45:00;;;;;;;5.63;2.05;;;;;;;17.78;69.45;101511.13;7396758;19;20086;-57
2022/03/25 10:47:28;;;;;;;6.30;3.33;;;;;;;17.76;66.16;101498.78;7395136;19;20014;-58
2022/03/25 10:50:11;;;;;;;12.07;3.15;;;;;;;17.85;65.14;101504.31;7397882;19;20492;-58
2022/03/25 10:52:38;;;;;;;17.85;4.22;;;;;;;17.94;64.42;101502.19;7397704;19;20504;-58
2022/03/25 10:55:22;;;;;;;9.05;2.05;;;;;;;18.00;64.17;101505.88;7398145;19;20078;-57
2022/03/25 10:57:50;;;;;;;10.10;2.78;;;;;;;18.03;63.11;101492.84;7398539;19;20011;-58
2022/03/25 11:00:17;;;;;;;10.85;2.72;;;;;;;18.14;61.42;101510.72;7395911;19;20460;-58
2022/03/25 11:02:45;;;;;;;8.95;2.60;;;;;;;18.21;61.31;101503.91;7397119;19;20027;-58
2022/03/25 11:05:13;;;;;;;7.93;3.03;;;;;;;18.18;60.97;101505.66;7396650;19;20011;-58
2022/03/25 11:07:46;;;;;;;17.75;4.38;;;;;;;18.27;59.99;101499.13;7398731;19;20018;-57
2022/03/25 11:10:14;;;;;;;3.80;1.60;;;;;;;18.32;57.92;101506.13;7398006;19;20010;-58
2022/03/25 11:12:42;;;;;;;7.18;3.13;;;;;;;18.19;58.61;101501.56;7396402;19;20010;-58
2022/03/25 11:15:17;;;;;;;7.68;2.88;;;;;;;18.18;61.10;101505.66;7395692;19;20040;-57
2022/03/25 11:17:45;;;;;;;9.95;2.88;;;;;;;18.32;61.64;101497.66;7395934;19;20015;-57
2022/03/25 11:20:15;;;;;;;5.65;2.47;;;;;;;18.34;58.46;101504.38;7392056;19;20023;-58
2022/03/25 11:22:46;;;;;;;6.93;2.97;;;;;;;18.36;57.63;101501.06;7397174;19;20017;-58
2022/03/25 11:25:15;;;;;;;1.52;1.10;;;;;;;18.40;58.18;101499.59;7396561;19;20096;-58
2022/03/25 11:27:46;;;;;;;4.03;2.17;;;;;;;18.61;60.54;101503.25;7396472;19;20018;-57